createdAt,value
2023-02-11T09:11:45.657Z,23.38
2023-02-11T09:14:22.589Z,24.95
2023-02-11T09:16:58.105Z,23.57
2023-02-11T09:19:26.613Z,24.85
2023-02-11T09:21:53.908Z,25.63
2023-02-11T09:24:21.897Z,24.67
2023-02-11T09:26:50.311Z,25.02
2023-02-11T09:29:24.183Z,24.42
2023-02-11T09:31:52.237Z,22.33
2023-02-11T09:34:20.442Z,26.02
2023-02-11T09:36:54.316Z,22.83
2023-02-11T09:39:29.769Z,22.00
2023-02-11T09:43:04.116Z,24.05
2023-02-11T09:45:34.146Z,20.95
2023-02-11T09:48:16.218Z,24.10
2023-02-11T09:55:43.125Z,24.52
2023-02-11T09:58:10.764Z,25.05
2023-02-11T10:00:44.987Z,25.90
2023-02-11T10:03:38.166Z,24.63
2023-02-11T10:06:41.295Z,24.98
2023-02-11T10:09:32.270Z,25.60
2023-02-11T10:12:12.591Z,23.25
2023-02-11T10:15:06.952Z,24.83
2023-02-11T10:18:04.350Z,23.50
2023-02-11T10:21:02.988Z,25.58
2023-02-11T10:23:36.695Z,25.42
2023-02-11T10:26:03.731Z,25.00
2023-02-11T10:28:34.056Z,26.75
2023-02-11T10:31:20.859Z,25.17
2023-02-11T10:34:07.286Z,24.73
2023-02-11T10:36:37.453Z,26.08
2023-02-11T10:39:23.265Z,28.30
2023-02-11T10:42:02.162Z,25.63
2023-02-11T10:44:43.931Z,24.67
2023-02-11T10:47:21.892Z,25.30
2023-02-11T10:49:49.252Z,26.40
2023-02-11T10:52:25.062Z,27.70
2023-02-11T10:55:17.766Z,28.98
2023-02-11T10:58:00.407Z,27.92
2023-02-11T11:00:42.740Z,27.20
2023-02-11T11:03:24.328Z,27.77
2023-02-11T11:06:03.853Z,26.42
2023-02-11T11:08:51.613Z,28.10
2023-02-11T11:11:26.196Z,26.23
2023-02-11T11:13:52.798Z,27.33
2023-02-11T11:16:36.476Z,27.15
2023-02-11T11:19:09.156Z,27.77
2023-02-11T11:22:06.677Z,25.80
2023-02-11T11:24:44.346Z,27.10
2023-02-11T11:27:25.435Z,28.10
2023-02-11T11:29:56.117Z,26.50
2023-02-11T11:32:28.314Z,26.30
2023-02-11T11:35:00.203Z,27.40
2023-02-11T11:37:33.059Z,25.63
2023-02-11T11:40:13.659Z,26.60
2023-02-11T11:42:40.860Z,25.95
2023-02-11T11:45:19.575Z,27.48
2023-02-11T11:48:14.284Z,27.63
2023-02-11T11:50:52.978Z,26.55
2023-02-11T11:53:52.116Z,26.40
2023-02-11T11:56:26.826Z,26.08
2023-02-11T11:58:54.440Z,25.02
2023-02-11T12:02:11.760Z,27.13
2023-02-11T12:04:53.928Z,25.65
2023-02-11T12:07:40.239Z,27.65
2023-02-11T12:10:21.112Z,27.85
2023-02-11T12:13:05.872Z,25.20
2023-02-11T12:16:26.103Z,26.45
2023-02-11T12:19:29.676Z,27.05
2023-02-11T12:22:09.977Z,28.55
2023-02-11T12:24:49.763Z,26.08
2023-02-11T12:28:31.403Z,26.52
2023-02-11T12:31:15.675Z,25.60
2023-02-11T12:34:18.248Z,28.88
2023-02-11T12:36:54.378Z,27.27
2023-02-11T12:40:01.337Z,27.65
2023-02-11T12:42:59.000Z,26.90
2023-02-11T12:46:00.927Z,27.38
2023-02-11T12:49:01.836Z,27.60
2023-02-11T12:51:56.214Z,27.08
2023-02-11T12:54:40.126Z,29.00
2023-02-11T12:57:26.486Z,28.92
2023-02-11T13:00:19.691Z,28.63
2023-02-11T13:03:34.934Z,27.60
2023-02-11T13:06:12.304Z,27.25
2023-02-11T13:08:50.137Z,26.95
2023-02-11T13:16:22.196Z,23.80
2023-02-11T13:19:13.066Z,27.33
2023-02-11T13:22:21.035Z,27.58
2023-02-11T13:25:17.619Z,25.80
2023-02-11T13:28:25.399Z,25.15
2023-02-11T13:31:02.845Z,27.20
2023-02-11T13:33:45.747Z,25.85
2023-02-11T13:36:16.752Z,26.75
2023-02-11T13:39:03.200Z,28.48
2023-02-11T13:41:52.209Z,27.48
2023-02-11T13:44:26.506Z,27.17
2023-02-11T13:53:57.725Z,25.10
2023-02-11T13:56:46.336Z,26.23
2023-02-11T13:59:25.304Z,24.48
2023-02-11T14:02:23.345Z,27.20
2023-02-11T14:05:24.038Z,25.83
2023-02-11T14:08:28.798Z,26.05
2023-02-11T14:12:12.937Z,25.42
2023-02-11T14:15:07.826Z,24.45
2023-02-11T14:17:35.256Z,24.50
2023-02-11T14:20:36.450Z,25.10
2023-02-11T14:23:04.815Z,27.42
2023-02-11T14:25:32.047Z,26.15
2023-02-11T14:28:07.850Z,26.20
2023-02-11T14:33:43.297Z,24.38
2023-02-11T14:36:52.707Z,24.40
2023-02-11T14:39:25.355Z,25.50
2023-02-11T14:41:52.857Z,25.58
2023-02-11T14:44:28.169Z,25.92
2023-02-11T14:46:56.416Z,27.23
2023-02-11T14:49:37.939Z,25.75
2023-02-11T14:52:18.762Z,27.80
2023-02-11T14:54:48.735Z,24.77
2023-02-11T14:57:19.264Z,27.17
2023-02-11T15:00:06.070Z,27.42
2023-02-11T15:02:37.611Z,27.95
2023-02-11T15:05:29.009Z,27.98
2023-02-11T15:08:00.757Z,25.23
2023-02-11T15:10:36.279Z,27.08
2023-02-11T15:13:05.134Z,27.52
2023-02-11T15:15:33.043Z,30.15
2023-02-11T15:18:02.769Z,27.33
2023-02-11T15:20:33.714Z,26.67
2023-02-11T15:23:09.421Z,26.70
2023-02-11T15:25:45.771Z,26.75
2023-02-11T15:28:31.324Z,27.77
2023-02-11T15:31:03.774Z,26.98
2023-02-11T15:33:32.421Z,27.63
2023-02-11T15:36:03.131Z,28.08
2023-02-11T15:38:30.555Z,26.45
2023-02-11T15:41:01.048Z,26.92
2023-02-11T15:44:00.409Z,27.80
2023-02-11T15:46:36.689Z,26.05
2023-02-11T15:49:04.168Z,26.02
2023-02-11T15:51:39.879Z,25.48
2023-02-11T15:54:18.795Z,27.10
2023-02-11T15:56:49.927Z,27.60
2023-02-11T15:59:25.941Z,28.42
2023-02-11T16:01:54.445Z,27.85
2023-02-11T16:04:26.124Z,29.20
2023-02-11T16:06:55.455Z,29.08
2023-02-11T16:09:32.620Z,28.20
2023-02-11T16:12:04.454Z,29.35
2023-02-11T16:14:37.135Z,29.20
2023-02-11T16:17:12.328Z,29.02
2023-02-11T16:19:51.743Z,28.90
2023-02-11T16:22:24.704Z,29.38
2023-02-11T16:24:54.588Z,28.13
2023-02-11T16:27:37.354Z,29.60
2023-02-11T16:30:05.573Z,30.88
2023-02-11T16:32:32.393Z,32.35
2023-02-11T16:35:01.309Z,33.50
2023-02-11T16:37:28.280Z,32.22
2023-02-11T16:39:56.853Z,29.85
2023-02-11T16:42:23.711Z,31.08
2023-02-11T16:44:50.468Z,31.05
2023-02-11T16:47:26.390Z,30.35
2023-02-11T16:52:21.637Z,33.45
2023-02-11T16:54:48.913Z,32.15
2023-02-11T16:57:23.302Z,30.80
2023-02-11T16:59:50.729Z,30.88
2023-02-11T17:02:27.869Z,35.47
2023-02-11T17:04:58.170Z,30.95
2023-02-11T17:07:25.202Z,32.42
2023-02-11T17:09:52.223Z,34.00
2023-02-11T17:12:19.905Z,31.05
2023-02-11T17:14:46.628Z,30.70
2023-02-11T17:17:14.135Z,31.42
2023-02-11T17:19:40.856Z,31.73
2023-02-11T17:22:07.650Z,33.80
2023-02-11T17:24:34.381Z,32.10
2023-02-11T17:27:01.102Z,32.33
2023-02-11T17:29:27.867Z,33.15
2023-02-11T17:31:54.792Z,31.08
2023-02-11T17:34:22.669Z,33.25
2023-02-11T17:36:49.714Z,34.17
2023-02-11T17:39:16.409Z,31.70
2023-02-11T17:41:43.123Z,34.90
2023-02-11T17:44:12.444Z,34.22
2023-02-11T17:46:39.489Z,31.88
2023-02-11T17:49:06.318Z,34.28
2023-02-11T17:51:37.110Z,32.05
2023-02-11T17:54:08.240Z,33.15
2023-02-11T17:56:36.520Z,32.05
2023-02-11T17:59:04.796Z,34.28
2023-02-11T18:01:34.204Z,34.08
2023-02-11T18:04:01.732Z,34.92
2023-02-11T18:06:33.647Z,32.72
2023-02-11T18:09:02.380Z,34.20
2023-02-11T18:11:31.958Z,34.33
2023-02-11T18:14:00.070Z,34.67
2023-02-11T18:16:28.605Z,34.78
2023-02-11T18:18:58.473Z,34.40
2023-02-11T18:21:25.624Z,37.60
2023-02-11T18:23:52.538Z,33.88
2023-02-11T18:26:21.807Z,33.17
2023-02-11T18:28:48.712Z,34.30
2023-02-11T18:31:15.634Z,32.88
2023-02-11T18:33:42.716Z,33.55
2023-02-11T18:36:15.671Z,35.90
2023-02-11T18:38:46.192Z,33.65
2023-02-11T18:41:14.094Z,34.75
2023-02-11T18:43:41.343Z,32.63
2023-02-11T18:46:12.323Z,32.80
2023-02-11T18:48:39.271Z,34.75
2023-02-11T18:51:14.961Z,32.90
2023-02-11T18:53:43.039Z,34.22
2023-02-11T18:56:16.576Z,34.50
2023-02-11T18:58:43.377Z,34.92
2023-02-11T19:01:22.785Z,32.78
2023-02-11T19:03:50.792Z,33.78
2023-02-11T19:06:21.181Z,34.58
2023-02-11T19:08:48.260Z,35.70
2023-02-11T19:11:18.656Z,31.88
2023-02-11T19:13:49.562Z,33.97
2023-02-11T19:16:19.629Z,34.65
2023-02-11T19:18:46.516Z,31.98
2023-02-11T19:21:13.231Z,34.88
2023-02-11T19:23:40.005Z,34.70
2023-02-11T19:26:06.970Z,32.88
2023-02-11T19:28:36.894Z,35.67
2023-02-11T19:31:09.049Z,35.13
2023-02-11T19:33:36.771Z,33.65
2023-02-11T19:36:07.130Z,35.65
2023-02-11T19:38:34.640Z,33.13
2023-02-11T19:41:01.718Z,33.42
2023-02-11T19:43:28.622Z,33.25
2023-02-11T19:45:58.471Z,34.88
2023-02-11T19:48:25.533Z,34.25
2023-02-11T19:50:52.345Z,32.70
2023-02-11T19:53:19.125Z,36.17
2023-02-11T19:55:45.921Z,34.13
2023-02-11T19:58:12.857Z,33.78
2023-02-11T20:00:39.596Z,35.25
2023-02-11T20:03:06.645Z,33.13
2023-02-11T20:05:33.636Z,35.40
2023-02-11T20:08:00.388Z,34.80
2023-02-11T20:10:27.071Z,32.67
2023-02-11T20:12:54.163Z,33.47
2023-02-11T20:15:21.059Z,34.22
2023-02-11T20:17:47.908Z,34.17
2023-02-11T20:20:14.728Z,33.97
2023-02-11T20:22:41.439Z,34.50
2023-02-11T20:25:08.354Z,33.75
2023-02-11T20:27:35.072Z,35.80
2023-02-11T20:30:01.841Z,35.83
2023-02-11T20:32:30.590Z,36.05
2023-02-11T20:34:58.817Z,36.28
2023-02-11T20:37:25.605Z,34.42
2023-02-11T20:39:52.290Z,33.20
2023-02-11T20:42:19.030Z,36.25
2023-02-11T20:44:45.773Z,34.40
2023-02-11T20:47:12.660Z,33.65
2023-02-11T20:49:39.391Z,34.28
2023-02-11T20:52:08.106Z,34.28
2023-02-11T20:54:34.801Z,36.05
2023-02-11T20:57:02.250Z,36.25
2023-02-11T20:59:29.013Z,33.78
2023-02-11T21:01:56.851Z,36.03
2023-02-11T21:04:30.006Z,35.15
2023-02-11T21:07:00.266Z,34.75
2023-02-11T21:09:32.299Z,37.25
2023-02-11T21:11:59.832Z,36.20
2023-02-11T21:14:28.231Z,34.05
2023-02-11T21:16:55.141Z,32.00
2023-02-11T21:19:22.055Z,36.17
2023-02-11T21:21:49.113Z,37.80
2023-02-11T21:24:15.956Z,37.38
2023-02-11T21:26:43.026Z,34.72
2023-02-11T21:29:09.985Z,36.20
2023-02-11T21:31:37.854Z,35.80
2023-02-11T21:34:05.920Z,36.97
2023-02-11T21:36:32.828Z,35.97
2023-02-11T21:39:01.654Z,36.03
2023-02-11T21:41:28.461Z,36.00
2023-02-11T21:43:55.246Z,34.75
2023-02-11T21:46:22.645Z,34.97
2023-02-11T21:48:52.720Z,33.97
2023-02-11T21:51:23.573Z,33.70
2023-02-11T21:54:01.076Z,35.53
2023-02-11T21:56:30.517Z,35.25
2023-02-11T21:58:59.173Z,35.10
2023-02-11T22:01:33.094Z,33.13
2023-02-11T22:04:00.366Z,33.10
2023-02-11T22:06:32.818Z,33.55
2023-02-11T22:09:05.098Z,32.55
2023-02-11T22:11:31.984Z,33.55
2023-02-11T22:13:59.147Z,34.03
2023-02-11T22:16:27.968Z,34.05
2023-02-11T22:18:58.626Z,34.30
2023-02-11T22:21:27.089Z,35.83
2023-02-11T22:23:55.761Z,33.67
2023-02-11T22:26:26.162Z,33.00
2023-02-11T22:28:53.800Z,32.42
2023-02-11T22:31:25.082Z,33.20
2023-02-11T22:33:52.160Z,34.72
2023-02-11T22:36:27.356Z,32.67
2023-02-11T22:38:54.905Z,31.73
2023-02-11T22:41:23.386Z,33.22
2023-02-11T22:43:50.360Z,31.58
2023-02-11T22:46:19.449Z,30.30
2023-02-11T22:48:47.246Z,32.30
2023-02-11T22:51:21.517Z,33.58
2023-02-11T22:53:59.173Z,33.60
2023-02-11T22:56:27.677Z,31.33
2023-02-11T22:58:59.270Z,31.27
2023-02-11T23:01:26.588Z,31.13
2023-02-11T23:03:57.111Z,33.10
2023-02-11T23:06:24.169Z,32.97
2023-02-11T23:08:51.242Z,32.10
2023-02-11T23:11:23.003Z,35.42
2023-02-11T23:13:51.984Z,34.22
2023-02-11T23:16:25.548Z,33.15
2023-02-11T23:18:53.354Z,31.67
2023-02-11T23:21:27.686Z,33.92
2023-02-11T23:23:57.421Z,33.03
2023-02-11T23:26:25.271Z,31.67
2023-02-11T23:28:52.086Z,32.15
2023-02-11T23:31:34.067Z,31.30
2023-02-11T23:34:01.500Z,32.97
2023-02-11T23:36:28.913Z,33.80
2023-02-11T23:38:55.840Z,36.05
2023-02-11T23:41:22.744Z,31.13
2023-02-11T23:43:55.730Z,41.20
2023-02-11T23:46:25.031Z,33.65
2023-02-11T23:48:52.452Z,37.55
2023-02-11T23:51:20.107Z,35.92
2023-02-11T23:53:49.258Z,35.45
2023-02-11T23:56:22.648Z,35.45
2023-02-11T23:58:51.441Z,34.90
